Time;durP1;ratioP1;P1;durP2;ratioP2;P2;SDS_P1;SDS_P2;PMS_P1;PMS_P2;Temp;Humidity;BMP_temperature;BMP_pressure;BME280_temperature;BME280_humidity;BME280_pressure;Samples;Min_cycle;Max_cycle;Signal;HPM_P1;HPM_P2
2023/11/18 00:02:34;;;;;;;9.63;6.07;;;;;;;;;;5103499;28;20179;-84
2023/11/18 00:05:38;;;;;;;8.53;6.40;;;;;;;;;;5101888;28;20627;-85
2023/11/18 00:08:43;;;;;;;8.00;5.63;;;;;;;;;;5103752;28;20174;-85
2023/11/18 00:11:47;;;;;;;7.43;5.77;;;;;;;;;;5103458;28;20179;-85
2023/11/18 00:14:51;;;;;;;7.30;5.70;;;;;;;;;;5089370;28;20170;-85
2023/11/18 00:17:55;;;;;;;9.13;5.67;;;;;;;;;;5101523;28;20539;-85
2023/11/18 00:20:59;;;;;;;7.37;5.73;;;;;;;;;;5102590;28;20175;-85
2023/11/18 00:24:05;;;;;;;7.73;6.07;;;;;;;;;;5101361;28;20202;-85
2023/11/18 00:27:10;;;;;;;9.57;5.37;;;;;;;;;;5102537;28;20218;-85
2023/11/18 00:30:15;;;;;;;7.33;5.50;;;;;;;;;;5102093;28;20179;-84
2023/11/18 00:33:19;;;;;;;9.23;6.27;;;;;;;;;;5091428;28;20620;-85
2023/11/18 00:36:23;;;;;;;8.97;6.03;;;;;;;;;;5090173;28;20218;-84
2023/11/18 00:39:29;;;;;;;6.87;5.77;;;;;;;;;;5089745;28;20182;-84
2023/11/18 00:42:33;;;;;;;8.17;5.97;;;;;;;;;;5077616;28;20174;-84
2023/11/18 00:45:37;;;;;;;9.20;6.20;;;;;;;;;;5077720;28;20175;-85
2023/11/18 00:48:42;;;;;;;7.07;5.53;;;;;;;;;;5089171;28;20178;-84
2023/11/18 00:51:47;;;;;;;9.17;6.43;;;;;;;;;;5100063;28;20681;-84
2023/11/18 00:54:52;;;;;;;9.17;6.60;;;;;;;;;;5101092;28;20182;-84
2023/11/18 00:57:58;;;;;;;10.10;7.00;;;;;;;;;;5089355;28;20210;-84
2023/11/18 01:01:03;;;;;;;8.03;6.47;;;;;;;;;;5088738;28;20206;-84
2023/11/18 01:04:08;;;;;;;8.40;6.63;;;;;;;;;;5089587;28;20207;-84
2023/11/18 01:07:13;;;;;;;9.40;6.20;;;;;;;;;;5100732;28;20215;-85
2023/11/18 01:10:19;;;;;;;9.17;6.07;;;;;;;;;;5090166;28;20183;-84
2023/11/18 01:13:23;;;;;;;9.10;5.90;;;;;;;;;;5090456;28;20175;-85
2023/11/18 01:16:28;;;;;;;13.70;6.10;;;;;;;;;;5101978;28;20214;-84
2023/11/18 01:19:33;;;;;;;6.50;5.17;;;;;;;;;;5089393;28;20178;-84
2023/11/18 01:22:39;;;;;;;4.80;4.20;;;;;;;;;;5101533;28;20543;-84
2023/11/18 01:25:43;;;;;;;3.47;3.00;;;;;;;;;;5100506;28;20548;-84
2023/11/18 01:28:48;;;;;;;2.83;2.20;;;;;;;;;;5089516;28;20179;-84
2023/11/18 01:31:55;;;;;;;2.27;1.60;;;;;;;;;;5088541;28;20179;-84
2023/11/18 01:35:00;;;;;;;2.30;1.80;;;;;;;;;;5089609;28;20179;-84
2023/11/18 01:38:05;;;;;;;1.73;1.60;;;;;;;;;;5089192;28;20179;-84
2023/11/18 01:41:09;;;;;;;1.70;1.60;;;;;;;;;;5101064;28;20619;-84
2023/11/18 01:44:13;;;;;;;2.03;1.63;;;;;;;;;;5100857;28;20214;-84
2023/11/18 01:47:18;;;;;;;1.87;1.60;;;;;;;;;;5100119;28;20222;-84
2023/11/18 01:50:22;;;;;;;4.03;1.90;;;;;;;;;;5089161;28;20179;-85
2023/11/18 01:53:28;;;;;;;2.83;1.60;;;;;;;;;;5096189;28;20179;-84
2023/11/18 01:56:32;;;;;;;1.80;1.60;;;;;;;;;;5084421;28;20222;-84
2023/11/18 01:59:40;;;;;;;1.93;1.67;;;;;;;;;;5086299;28;20567;-84
2023/11/18 02:02:44;;;;;;;1.73;1.63;;;;;;;;;;5090871;28;20183;-84
2023/11/18 02:05:49;;;;;;;2.37;1.73;;;;;;;;;;5079905;28;20210;-84
2023/11/18 02:08:54;;;;;;;2.20;2.00;;;;;;;;;;5090565;28;20559;-84
2023/11/18 02:12:34;;;;;;;2.20;2.00;;;;;;;;;;5103113;28;20178;-84
2023/11/18 02:15:41;;;;;;;2.10;1.80;;;;;;;;;;5095863;28;20194;-84
2023/11/18 02:18:49;;;;;;;1.97;1.73;;;;;;;;;;5091114;28;20179;-84
2023/11/18 02:21:54;;;;;;;2.30;1.87;;;;;;;;;;5103079;28;20620;-84
2023/11/18 02:25:06;;;;;;;1.90;1.70;;;;;;;;;;5091063;28;20579;-84
2023/11/18 02:28:10;;;;;;;1.83;1.70;;;;;;;;;;5090232;28;20175;-84
2023/11/18 02:31:31;;;;;;;1.70;1.60;;;;;;;;;;5091091;28;20183;-84
2023/11/18 02:34:42;;;;;;;2.47;2.03;;;;;;;;;;5090871;28;20171;-84
2023/11/18 02:37:49;;;;;;;2.93;2.10;;;;;;;;;;5101744;28;20695;-84
2023/11/18 02:40:57;;;;;;;4.23;2.17;;;;;;;;;;5103996;28;20179;-85
2023/11/18 02:44:08;;;;;;;2.30;2.10;;;;;;;;;;5090831;28;20210;-84
2023/11/18 02:47:16;;;;;;;2.40;2.10;;;;;;;;;;5091412;28;20207;-84
2023/11/18 02:50:20;;;;;;;3.07;2.40;;;;;;;;;;5102562;28;20178;-84
2023/11/18 02:53:25;;;;;;;4.40;2.93;;;;;;;;;;5102974;28;20178;-84
2023/11/18 02:56:29;;;;;;;5.67;4.57;;;;;;;;;;5102660;28;20218;-84
2023/11/18 02:59:34;;;;;;;8.03;6.63;;;;;;;;;;5098461;28;20642;-86
2023/11/18 03:02:39;;;;;;;8.73;7.13;;;;;;;;;;5085900;28;20186;-86
2023/11/18 03:05:43;;;;;;;11.40;8.03;;;;;;;;;;5098053;28;20215;-85
2023/11/18 03:08:47;;;;;;;10.27;8.03;;;;;;;;;;5085604;28;20627;-86
2023/11/18 03:11:51;;;;;;;9.60;7.70;;;;;;;;;;5085353;28;20179;-86
2023/11/18 03:14:57;;;;;;;10.37;8.00;;;;;;;;;;5085449;28;20179;-86
2023/11/18 03:18:01;;;;;;;9.27;8.27;;;;;;;;;;5096508;28;20178;-86
2023/11/18 03:21:12;;;;;;;9.77;7.53;;;;;;;;;;5096140;28;20182;-86
2023/11/18 03:24:16;;;;;;;11.00;7.93;;;;;;;;;;5084716;28;20563;-86
2023/11/18 03:27:20;;;;;;;9.77;7.80;;;;;;;;;;5095890;28;20219;-86
2023/11/18 03:30:24;;;;;;;8.53;7.23;;;;;;;;;;5084374;28;20183;-86
2023/11/18 03:33:28;;;;;;;9.40;7.67;;;;;;;;;;5096045;28;20627;-86
2023/11/18 03:36:32;;;;;;;9.73;7.93;;;;;;;;;;5084124;28;20244;-86
2023/11/18 03:39:36;;;;;;;8.70;7.43;;;;;;;;;;5084171;28;20187;-86
2023/11/18 03:42:46;;;;;;;9.73;7.47;;;;;;;;;;5096565;28;20182;-86
2023/11/18 03:45:52;;;;;;;10.07;7.30;;;;;;;;;;5072161;28;20618;-86
2023/11/18 03:48:56;;;;;;;7.70;6.80;;;;;;;;;;5095454;28;20651;-86
2023/11/18 03:52:00;;;;;;;10.27;6.63;;;;;;;;;;5084451;28;20175;-86
2023/11/18 03:55:05;;;;;;;8.97;7.07;;;;;;;;;;5092782;28;20171;-87
2023/11/18 03:58:10;;;;;;;8.10;6.50;;;;;;;;;;5081317;28;20179;-84
2023/11/18 04:01:27;;;;;;;7.37;6.23;;;;;;;;;;5093280;28;20178;-84
2023/11/18 04:04:31;;;;;;;8.77;6.90;;;;;;;;;;5069126;28;20211;-84
2023/11/18 04:07:35;;;;;;;8.60;6.30;;;;;;;;;;5080614;28;20583;-84
2023/11/18 04:10:39;;;;;;;7.77;6.40;;;;;;;;;;5080720;28;20179;-84
2023/11/18 04:13:44;;;;;;;10.30;6.87;;;;;;;;;;5092664;28;20179;-84
2023/11/18 04:16:49;;;;;;;9.43;6.63;;;;;;;;;;5091582;28;20210;-84
2023/11/18 04:19:55;;;;;;;7.70;6.47;;;;;;;;;;5079663;28;20195;-84
2023/11/18 04:22:59;;;;;;;7.53;5.87;;;;;;;;;;5079218;28;20551;-84
2023/11/18 04:26:04;;;;;;;7.70;6.30;;;;;;;;;;5091218;28;20226;-84
2023/11/18 04:29:08;;;;;;;7.63;6.03;;;;;;;;;;5079732;28;20627;-84
2023/11/18 04:32:13;;;;;;;8.47;6.00;;;;;;;;;;5091236;28;20178;-84
2023/11/18 04:35:18;;;;;;;8.87;5.80;;;;;;;;;;5079885;28;20175;-84
2023/11/18 04:38:23;;;;;;;6.80;6.10;;;;;;;;;;5091142;28;20179;-84
2023/11/18 04:41:27;;;;;;;7.63;5.67;;;;;;;;;;5091196;28;20187;-85
2023/11/18 04:44:31;;;;;;;7.83;5.50;;;;;;;;;;5079337;28;20202;-85
2023/11/18 04:47:37;;;;;;;5.90;5.30;;;;;;;;;;5079469;28;20214;-84
2023/11/18 04:50:42;;;;;;;7.10;5.63;;;;;;;;;;5079346;28;20182;-85
2023/11/18 04:53:46;;;;;;;6.60;5.60;;;;;;;;;;5092030;28;20183;-85
2023/11/18 04:56:51;;;;;;;6.30;5.53;;;;;;;;;;5090644;28;20594;-85
2023/11/18 04:59:55;;;;;;;7.03;5.27;;;;;;;;;;5090949;28;20182;-85
2023/11/18 05:02:59;;;;;;;11.43;6.10;;;;;;;;;;5079470;28;20199;-85
2023/11/18 05:06:04;;;;;;;7.33;5.40;;;;;;;;;;5079891;28;20239;-85
2023/11/18 05:09:08;;;;;;;8.33;6.03;;;;;;;;;;5091786;28;20183;-85
2023/11/18 05:12:12;;;;;;;6.10;5.50;;;;;;;;;;5092403;28;20511;-85
2023/11/18 05:15:17;;;;;;;9.67;5.40;;;;;;;;;;5091206;28;20171;-85
2023/11/18 05:18:21;;;;;;;6.97;5.83;;;;;;;;;;5091385;28;20186;-85
2023/11/18 05:21:25;;;;;;;7.17;5.60;;;;;;;;;;5091501;28;20187;-85
2023/11/18 05:24:30;;;;;;;7.07;5.93;;;;;;;;;;5091212;28;20206;-85
2023/11/18 05:27:34;;;;;;;7.33;6.00;;;;;;;;;;5091160;28;20214;-85
2023/11/18 05:30:43;;;;;;;7.27;5.80;;;;;;;;;;5091030;28;20183;-85
2023/11/18 05:33:51;;;;;;;9.10;6.50;;;;;;;;;;5091818;28;20497;-85
2023/11/18 05:36:57;;;;;;;8.07;6.30;;;;;;;;;;5095298;28;20210;-85
2023/11/18 05:40:08;;;;;;;6.37;5.57;;;;;;;;;;5095386;28;20183;-85
2023/11/18 05:43:16;;;;;;;6.50;5.47;;;;;;;;;;5095055;28;20175;-85
2023/11/18 05:46:24;;;;;;;7.70;6.40;;;;;;;;;;5094378;28;20667;-85
2023/11/18 05:49:28;;;;;;;6.60;5.90;;;;;;;;;;5094656;28;20544;-85
2023/11/18 05:52:32;;;;;;;7.27;6.07;;;;;;;;;;5095928;28;20511;-85
2023/11/18 05:55:36;;;;;;;8.57;6.30;;;;;;;;;;5095699;28;20179;-85
2023/11/18 05:58:43;;;;;;;8.17;6.40;;;;;;;;;;5094982;28;20187;-85
2023/11/18 06:01:47;;;;;;;7.37;6.20;;;;;;;;;;5096171;28;20186;-85
2023/11/18 06:04:52;;;;;;;8.63;6.33;;;;;;;;;;5094955;28;20214;-85
2023/11/18 06:07:55;;;;;;;7.47;6.40;;;;;;;;;;5083293;28;20636;-85
2023/11/18 06:11:05;;;;;;;8.63;6.27;;;;;;;;;;5071998;28;20186;-85
2023/11/18 06:14:09;;;;;;;8.20;6.67;;;;;;;;;;5094220;28;20278;-85
2023/11/18 06:17:13;;;;;;;8.90;6.73;;;;;;;;;;5094565;28;20210;-84
2023/11/18 06:20:17;;;;;;;7.20;6.03;;;;;;;;;;5083177;28;20191;-84
2023/11/18 06:23:22;;;;;;;8.73;6.17;;;;;;;;;;5094371;28;20187;-84
2023/11/18 06:26:27;;;;;;;6.97;5.97;;;;;;;;;;5094210;28;20635;-84
2023/11/18 06:29:31;;;;;;;7.40;6.27;;;;;;;;;;5094116;28;20178;-84
2023/11/18 06:32:36;;;;;;;7.80;6.47;;;;;;;;;;5094081;28;20466;-84
2023/11/18 06:35:40;;;;;;;8.80;6.23;;;;;;;;;;5094333;28;20175;-84
2023/11/18 06:38:46;;;;;;;9.37;6.83;;;;;;;;;;5094111;28;20190;-84
2023/11/18 06:41:50;;;;;;;7.00;5.83;;;;;;;;;;5094106;28;20206;-84
2023/11/18 06:44:54;;;;;;;8.33;6.50;;;;;;;;;;5082345;28;20206;-85
2023/11/18 06:47:58;;;;;;;7.63;6.17;;;;;;;;;;5093664;28;20182;-85
2023/11/18 06:51:04;;;;;;;7.70;6.30;;;;;;;;;;5082152;28;20182;-85
2023/11/18 06:54:09;;;;;;;84.70;42.17;;;;;;;;;;5070528;28;20178;-85
2023/11/18 06:57:13;;;;;;;14.63;10.23;;;;;;;;;;5070472;28;20706;-85
2023/11/18 07:00:18;;;;;;;10.40;6.77;;;;;;;;;;5082020;28;20636;-84
2023/11/18 07:03:22;;;;;;;12.97;9.33;;;;;;;;;;5070330;28;20183;-84
2023/11/18 07:06:26;;;;;;;9.30;8.10;;;;;;;;;;5093817;28;20234;-84
2023/11/18 07:09:35;;;;;;;12.30;11.00;;;;;;;;;;5081350;28;20179;-84
2023/11/18 07:12:39;;;;;;;12.00;9.90;;;;;;;;;;5093240;28;20174;-84
2023/11/18 07:15:43;;;;;;;12.80;11.17;;;;;;;;;;5093705;28;20175;-84
2023/11/18 07:18:48;;;;;;;22.37;18.33;;;;;;;;;;5069942;28;20524;-84
2023/11/18 07:21:52;;;;;;;26.27;21.23;;;;;;;;;;5081479;28;20179;-84
2023/11/18 07:24:56;;;;;;;14.37;11.83;;;;;;;;;;5092873;28;20500;-84
2023/11/18 07:28:00;;;;;;;16.53;14.73;;;;;;;;;;5093831;28;20190;-84
2023/11/18 07:31:04;;;;;;;9.37;8.37;;;;;;;;;;5092954;28;20202;-84
2023/11/18 07:34:08;;;;;;;7.53;6.17;;;;;;;;;;5092520;28;20182;-84
2023/11/18 07:37:12;;;;;;;8.97;6.57;;;;;;;;;;5093696;28;20210;-84
2023/11/18 07:40:25;;;;;;;8.33;6.47;;;;;;;;;;5092472;28;20558;-85
2023/11/18 07:43:31;;;;;;;9.37;6.30;;;;;;;;;;5092581;28;20175;-84
2023/11/18 07:46:38;;;;;;;8.07;6.20;;;;;;;;;;5093792;28;20230;-84
2023/11/18 07:49:42;;;;;;;7.97;6.33;;;;;;;;;;5081258;28;20603;-84
2023/11/18 07:52:48;;;;;;;8.20;6.20;;;;;;;;;;5069490;28;20178;-84
2023/11/18 07:55:52;;;;;;;7.73;5.77;;;;;;;;;;5093148;28;20212;-85
2023/11/18 07:58:57;;;;;;;5.83;5.03;;;;;;;;;;5091687;28;20183;-84
2023/11/18 08:02:05;;;;;;;7.43;5.50;;;;;;;;;;5092663;28;20551;-84
2023/11/18 08:05:19;;;;;;;7.43;5.10;;;;;;;;;;5098307;28;20187;-84
2023/11/18 08:08:22;;;;;;;6.57;5.30;;;;;;;;;;5092587;28;20539;-84
2023/11/18 08:11:26;;;;;;;7.00;4.93;;;;;;;;;;5092220;28;20201;-85
2023/11/18 08:14:32;;;;;;;6.10;5.20;;;;;;;;;;5080626;28;20178;-84
2023/11/18 08:17:36;;;;;;;5.03;4.53;;;;;;;;;;5092906;28;20302;-84
2023/11/18 08:20:41;;;;;;;5.47;4.67;;;;;;;;;;5092889;28;20179;-84
2023/11/18 08:23:45;;;;;;;6.57;5.20;;;;;;;;;;5092306;28;20183;-84
2023/11/18 08:26:49;;;;;;;6.03;4.53;;;;;;;;;;5080733;28;20245;-84
2023/11/18 08:29:54;;;;;;;10.53;8.87;;;;;;;;;;5091720;28;20183;-84
2023/11/18 08:32:58;;;;;;;12.77;10.20;;;;;;;;;;5091531;28;20179;-84
2023/11/18 08:36:03;;;;;;;5.03;4.10;;;;;;;;;;5079681;28;20211;-84
2023/11/18 08:39:10;;;;;;;5.70;4.00;;;;;;;;;;5094064;28;20185;-84
2023/11/18 08:42:14;;;;;;;5.13;3.83;;;;;;;;;;5093801;28;20179;-84
2023/11/18 08:45:29;;;;;;;7.03;4.70;;;;;;;;;;5081780;28;20183;-84
2023/11/18 08:48:37;;;;;;;7.07;5.27;;;;;;;;;;5094025;28;20180;-84
2023/11/18 08:51:41;;;;;;;5.47;4.20;;;;;;;;;;5093767;28;20179;-84
2023/11/18 08:58:18;;;;;;;5.90;4.20;;;;;;;;;;5124134;22;20218;-81
2023/11/18 09:01:23;;;;;;;5.20;4.43;;;;;;;;;;5090303;28;20179;-83
2023/11/18 09:04:28;;;;;;;7.00;5.53;;;;;;;;;;5078450;28;20182;-82
2023/11/18 09:07:34;;;;;;;4.53;3.47;;;;;;;;;;5101480;28;20214;-82
2023/11/18 09:10:38;;;;;;;3.33;2.87;;;;;;;;;;5090133;28;20190;-83
2023/11/18 09:13:49;;;;;;;3.17;2.50;;;;;;;;;;5090898;28;20178;-85
2023/11/18 09:16:56;;;;;;;4.50;2.80;;;;;;;;;;5101882;28;20167;-81
2023/11/18 09:20:00;;;;;;;2.60;2.40;;;;;;;;;;5080543;28;20179;-82
2023/11/18 09:23:06;;;;;;;3.93;2.57;;;;;;;;;;5102456;28;20171;-81
2023/11/18 09:26:11;;;;;;;3.10;2.60;;;;;;;;;;5102875;28;20206;-83
2023/11/18 09:29:17;;;;;;;5.03;3.30;;;;;;;;;;5078139;28;20214;-83
2023/11/18 09:32:25;;;;;;;24.83;11.77;;;;;;;;;;5088681;28;20183;-83
2023/11/18 09:35:32;;;;;;;8.50;5.90;;;;;;;;;;5079350;28;20179;-83
2023/11/18 09:38:40;;;;;;;3.23;2.90;;;;;;;;;;5090609;28;20218;-83
2023/11/18 09:41:51;;;;;;;2.73;2.37;;;;;;;;;;5080693;28;20175;-84
2023/11/18 09:45:02;;;;;;;2.93;2.50;;;;;;;;;;5101695;28;20643;-83
2023/11/18 09:48:07;;;;;;;2.83;1.97;;;;;;;;;;5089369;28;20214;-83
2023/11/18 09:51:16;;;;;;;2.50;2.27;;;;;;;;;;5089457;28;20175;-83
2023/11/18 09:54:41;;;;;;;2.27;2.07;;;;;;;;;;5088368;28;20179;-83
2023/11/18 09:57:57;;;;;;;5.07;2.30;;;;;;;;;;5088653;28;20226;-83
2023/11/18 10:01:03;;;;;;;4.40;3.27;;;;;;;;;;5096880;28;20619;-83
2023/11/18 10:04:07;;;;;;;2.30;2.10;;;;;;;;;;5098586;28;20179;-84
2023/11/18 10:07:16;;;;;;;2.40;2.20;;;;;;;;;;5089118;28;20210;-83
2023/11/18 10:10:21;;;;;;;3.43;2.00;;;;;;;;;;5089113;28;20205;-83
2023/11/18 10:13:26;;;;;;;2.00;1.80;;;;;;;;;;5089785;28;20183;-82
2023/11/18 10:16:30;;;;;;;2.23;2.03;;;;;;;;;;5089927;28;20171;-83
2023/11/18 10:19:51;;;;;;;1.80;1.67;;;;;;;;;;5101550;28;20571;-82
2023/11/18 10:23:12;;;;;;;2.33;1.60;;;;;;;;;;5081923;28;20175;-83
2023/11/18 10:26:17;;;;;;;1.77;1.63;;;;;;;;;;5104932;28;20206;-83
2023/11/18 10:29:23;;;;;;;1.63;1.53;;;;;;;;;;5080443;28;20606;-82
2023/11/18 10:32:27;;;;;;;1.93;1.67;;;;;;;;;;5102257;28;20187;-83
2023/11/18 10:35:36;;;;;;;1.50;1.40;;;;;;;;;;5103454;28;20183;-83
2023/11/18 10:38:49;;;;;;;2.40;2.00;;;;;;;;;;5103817;28;20570;-82
2023/11/18 10:41:59;;;;;;;5.30;4.77;;;;;;;;;;5092380;28;20179;-83
2023/11/18 10:45:04;;;;;;;9.07;6.53;;;;;;;;;;5092800;28;20191;-83
2023/11/18 10:48:12;;;;;;;3.37;2.07;;;;;;;;;;5093475;28;20219;-83
2023/11/18 10:51:26;;;;;;;12.57;8.63;;;;;;;;;;5082770;28;20172;-83
2023/11/18 10:54:31;;;;;;;8.10;5.27;;;;;;;;;;5084279;28;20574;-83
2023/11/18 10:57:36;;;;;;;12.17;7.77;;;;;;;;;;5092729;28;20182;-83
2023/11/18 11:00:53;;;;;;;9.53;7.20;;;;;;;;;;5105509;28;20170;-83
2023/11/18 11:03:57;;;;;;;7.63;5.73;;;;;;;;;;5093647;28;20175;-83
2023/11/18 11:07:01;;;;;;;4.07;2.10;;;;;;;;;;5092102;28;20211;-82
2023/11/18 11:10:07;;;;;;;1.93;1.73;;;;;;;;;;5092665;28;20186;-83
2023/11/18 11:13:15;;;;;;;6.57;5.77;;;;;;;;;;5103703;28;20179;-83
2023/11/18 11:16:20;;;;;;;14.23;10.40;;;;;;;;;;5084829;28;20642;-83
2023/11/18 11:19:37;;;;;;;5.47;4.13;;;;;;;;;;5105707;28;20219;-81
2023/11/18 11:22:52;;;;;;;4.33;3.70;;;;;;;;;;5093904;28;20175;-82
2023/11/18 11:26:13;;;;;;;2.47;2.27;;;;;;;;;;5081664;28;20171;-82
2023/11/18 11:29:43;;;;;;;1.70;1.50;;;;;;;;;;5093306;28;20210;-82
2023/11/18 11:33:16;;;;;;;1.70;1.60;;;;;;;;;;5106746;28;20171;-82
2023/11/18 11:36:27;;;;;;;2.10;1.70;;;;;;;;;;5104637;28;20166;-82
2023/11/18 11:39:36;;;;;;;3.10;1.90;;;;;;;;;;5093635;28;20214;-82
2023/11/18 11:42:41;;;;;;;2.53;2.03;;;;;;;;;;5093345;28;20492;-81
2023/11/18 11:45:55;;;;;;;2.03;1.60;;;;;;;;;;5092984;28;20191;-82
2023/11/18 11:49:01;;;;;;;2.80;1.70;;;;;;;;;;5093617;28;20214;-83
2023/11/18 11:52:37;;;;;;;1.90;1.70;;;;;;;;;;5082154;28;20179;-82
2023/11/18 11:55:47;;;;;;;1.77;1.67;;;;;;;;;;5092970;28;20175;-82
2023/11/18 11:58:53;;;;;;;2.37;1.70;;;;;;;;;;5103820;28;20218;-83
2023/11/18 12:01:58;;;;;;;2.03;1.83;;;;;;;;;;5092664;28;20179;-82
2023/11/18 12:05:06;;;;;;;2.07;1.70;;;;;;;;;;5081397;28;20179;-82
2023/11/18 12:08:13;;;;;;;1.83;1.67;;;;;;;;;;5081100;28;20230;-82
2023/11/18 12:11:20;;;;;;;1.70;1.60;;;;;;;;;;5080768;28;20175;-82
2023/11/18 12:17:31;;;;;;;2.20;1.73;;;;;;;;;;5103716;28;20171;-84
2023/11/18 12:21:23;;;;;;;3.10;2.13;;;;;;;;;;5079941;28;20183;-83
2023/11/18 12:24:22;;;;;;;2.00;1.80;;;;;;;;;;5100723;28;20175;-87
2023/11/18 12:27:41;;;;;;;2.10;1.73;;;;;;;;;;5095013;28;20207;-87
2023/11/18 12:30:57;;;;;;;1.90;1.80;;;;;;;;;;5095036;28;20175;-87
2023/11/18 12:34:08;;;;;;;1.97;1.50;;;;;;;;;;5072198;28;20175;-87
2023/11/18 12:37:42;;;;;;;1.60;1.50;;;;;;;;;;5072315;28;20628;-88
2023/11/18 12:40:59;;;;;;;2.93;1.80;;;;;;;;;;5095140;28;20179;-88
2023/11/18 12:44:22;;;;;;;1.80;1.60;;;;;;;;;;5094956;28;20178;-87
2023/11/18 12:47:29;;;;;;;1.93;1.50;;;;;;;;;;5082459;28;20199;-87
2023/11/18 12:50:35;;;;;;;2.20;1.77;;;;;;;;;;5094988;28;20179;-88
2023/11/18 12:53:40;;;;;;;2.40;1.60;;;;;;;;;;5097519;28;20187;-85
2023/11/18 12:56:48;;;;;;;1.87;1.50;;;;;;;;;;5096207;28;20543;-84
2023/11/18 12:59:52;;;;;;;2.13;1.83;;;;;;;;;;5095714;28;20566;-85
2023/11/18 13:02:57;;;;;;;1.87;1.50;;;;;;;;;;5095739;28;20179;-85
2023/11/18 13:06:05;;;;;;;1.47;1.37;;;;;;;;;;5096662;28;20179;-85
2023/11/18 13:09:10;;;;;;;2.40;1.80;;;;;;;;;;5095710;28;20202;-86
2023/11/18 13:12:15;;;;;;;7.40;4.03;;;;;;;;;;5095676;28;20562;-84
2023/11/18 13:15:20;;;;;;;3.00;1.90;;;;;;;;;;5096277;28;20178;-85
2023/11/18 13:18:26;;;;;;;1.70;1.60;;;;;;;;;;5095888;28;20210;-86
2023/11/18 13:21:36;;;;;;;2.03;1.67;;;;;;;;;;5095293;28;20633;-85
2023/11/18 13:24:45;;;;;;;3.07;2.17;;;;;;;;;;5072621;28;20182;-86
2023/11/18 13:27:50;;;;;;;1.63;1.50;;;;;;;;;;5095718;28;20586;-85
2023/11/18 13:30:55;;;;;;;2.43;1.40;;;;;;;;;;5095967;28;20201;-86
2023/11/18 13:34:00;;;;;;;1.57;1.33;;;;;;;;;;5095980;28;20183;-86
2023/11/18 13:37:06;;;;;;;2.27;1.50;;;;;;;;;;5096620;28;20175;-85
2023/11/18 13:40:11;;;;;;;15.53;10.63;;;;;;;;;;5095840;28;20535;-86
2023/11/18 13:43:16;;;;;;;4.23;3.50;;;;;;;;;;5084624;28;20175;-85
2023/11/18 13:46:21;;;;;;;2.60;2.00;;;;;;;;;;5096995;28;20182;-85
2023/11/18 13:49:29;;;;;;;3.13;1.70;;;;;;;;;;5084225;28;20206;-84
2023/11/18 13:52:35;;;;;;;3.33;1.50;;;;;;;;;;5096481;28;20175;-86
2023/11/18 13:55:40;;;;;;;1.73;1.20;;;;;;;;;;5096909;28;20543;-84
2023/11/18 13:58:45;;;;;;;1.90;1.80;;;;;;;;;;5099224;28;20218;-85
2023/11/18 14:01:51;;;;;;;4.07;3.67;;;;;;;;;;5100388;28;20194;-84
2023/11/18 14:04:56;;;;;;;1.50;1.40;;;;;;;;;;5100171;28;20183;-85
2023/11/18 14:08:00;;;;;;;2.20;1.40;;;;;;;;;;5100628;28;20227;-85
2023/11/18 14:11:05;;;;;;;3.00;1.70;;;;;;;;;;5102336;28;20179;-86
2023/11/18 14:14:09;;;;;;;3.20;1.53;;;;;;;;;;5100441;28;20547;-86
2023/11/18 14:17:13;;;;;;;2.33;1.53;;;;;;;;;;5100769;28;20179;-86
2023/11/18 14:20:17;;;;;;;3.83;3.20;;;;;;;;;;5101204;28;20639;-85
2023/11/18 14:23:22;;;;;;;2.23;1.97;;;;;;;;;;5099654;28;20552;-86
2023/11/18 14:26:27;;;;;;;1.90;1.40;;;;;;;;;;5100755;28;20222;-85
2023/11/18 14:29:31;;;;;;;1.83;1.40;;;;;;;;;;5099066;28;20210;-85
2023/11/18 14:32:35;;;;;;;1.40;1.20;;;;;;;;;;5087463;28;20179;-86
2023/11/18 14:35:40;;;;;;;3.73;1.23;;;;;;;;;;5087675;28;20178;-85
2023/11/18 14:38:44;;;;;;;2.13;1.30;;;;;;;;;;5098994;28;20206;-85
2023/11/18 14:41:49;;;;;;;2.67;1.10;;;;;;;;;;5075345;28;20182;-87
2023/11/18 14:44:53;;;;;;;1.93;1.13;;;;;;;;;;5097470;28;20634;-87
2023/11/18 14:47:57;;;;;;;1.87;1.40;;;;;;;;;;5096148;28;20681;-87
2023/11/18 14:51:01;;;;;;;1.47;1.10;;;;;;;;;;5084915;28;20198;-87
2023/11/18 14:54:05;;;;;;;1.63;1.17;;;;;;;;;;5096611;28;20179;-87
2023/11/18 14:57:09;;;;;;;1.37;1.10;;;;;;;;;;5097960;28;20199;-87
2023/11/18 15:00:21;;;;;;;2.13;1.10;;;;;;;;;;5115664;22;20235;-85
2023/11/18 15:03:25;;;;;;;2.20;1.20;;;;;;;;;;5060980;28;20180;-84
2023/11/18 15:06:30;;;;;;;2.60;1.20;;;;;;;;;;5061254;28;20632;-85
2023/11/18 15:09:35;;;;;;;1.60;1.20;;;;;;;;;;5059441;28;20233;-85
2023/11/18 15:12:40;;;;;;;1.50;1.20;;;;;;;;;;5048349;28;20180;-85
2023/11/18 15:15:47;;;;;;;1.77;1.30;;;;;;;;;;5059995;28;20189;-84
2023/11/18 15:18:52;;;;;;;1.20;1.10;;;;;;;;;;5048377;28;20215;-85
2023/11/18 15:21:56;;;;;;;1.40;1.30;;;;;;;;;;5048703;28;20184;-85
2023/11/18 15:25:00;;;;;;;1.40;1.23;;;;;;;;;;5072060;28;20184;-84
2023/11/18 15:28:09;;;;;;;2.50;1.40;;;;;;;;;;5061055;28;20216;-85
2023/11/18 15:31:14;;;;;;;1.43;1.10;;;;;;;;;;5037872;28;20172;-85
2023/11/18 15:34:19;;;;;;;2.30;1.47;;;;;;;;;;5060370;28;20176;-85
2023/11/18 15:37:23;;;;;;;5.00;1.30;;;;;;;;;;5072433;28;20185;-84
2023/11/18 15:40:28;;;;;;;5.23;1.20;;;;;;;;;;5071229;28;20180;-84
2023/11/18 15:43:32;;;;;;;2.00;1.17;;;;;;;;;;5071407;28;20181;-85
2023/11/18 15:46:37;;;;;;;1.07;0.97;;;;;;;;;;5071148;28;20184;-84
2023/11/18 15:49:41;;;;;;;3.10;1.27;;;;;;;;;;5048231;28;20208;-85
2023/11/18 15:52:49;;;;;;;1.33;0.93;;;;;;;;;;5061151;28;20188;-84
2023/11/18 15:55:53;;;;;;;1.83;1.03;;;;;;;;;;5058597;28;20637;-85
2023/11/18 15:58:57;;;;;;;1.10;1.00;;;;;;;;;;5060187;28;20223;-84
2023/11/18 16:02:05;;;;;;;3.20;2.30;;;;;;;;;;5048306;28;20176;-85
2023/11/18 16:05:09;;;;;;;11.10;7.53;;;;;;;;;;5070411;28;20629;-84
2023/11/18 16:08:13;;;;;;;47.80;33.30;;;;;;;;;;5047805;28;20208;-84
2023/11/18 16:11:18;;;;;;;36.43;26.10;;;;;;;;;;5059371;28;20184;-84
2023/11/18 16:14:23;;;;;;;10.50;8.13;;;;;;;;;;5059118;28;20184;-84
2023/11/18 16:17:27;;;;;;;4.70;3.23;;;;;;;;;;5047683;28;20181;-84
2023/11/18 16:20:34;;;;;;;1.37;1.27;;;;;;;;;;5058811;28;20180;-84
2023/11/18 16:23:39;;;;;;;1.60;1.03;;;;;;;;;;5057214;28;20179;-85
2023/11/18 16:26:45;;;;;;;1.10;1.00;;;;;;;;;;5057717;28;20180;-84
2023/11/18 16:29:50;;;;;;;3.90;1.30;;;;;;;;;;5057972;28;20704;-84
2023/11/18 16:32:56;;;;;;;1.93;1.10;;;;;;;;;;5058731;28;20185;-85
2023/11/18 16:36:00;;;;;;;1.80;1.40;;;;;;;;;;5058515;28;20184;-84
2023/11/18 16:39:06;;;;;;;1.10;0.90;;;;;;;;;;5043105;28;20557;-87
2023/11/18 16:42:10;;;;;;;1.57;1.20;;;;;;;;;;5065592;28;20180;-87
2023/11/18 16:45:15;;;;;;;5.83;1.43;;;;;;;;;;5042647;28;20184;-86
2023/11/18 16:48:20;;;;;;;2.70;1.40;;;;;;;;;;5042135;28;20212;-86
2023/11/18 16:51:25;;;;;;;1.67;1.43;;;;;;;;;;5065703;28;20180;-86
2023/11/18 16:54:29;;;;;;;1.40;1.17;;;;;;;;;;5042845;28;20179;-87
2023/11/18 16:57:34;;;;;;;5.43;2.10;;;;;;;;;;5053827;28;20632;-86
2023/11/18 17:00:40;;;;;;;1.30;1.10;;;;;;;;;;5058011;28;20176;-85
2023/11/18 17:03:44;;;;;;;1.50;1.40;;;;;;;;;;5044972;28;20177;-85
2023/11/18 17:06:49;;;;;;;2.60;1.33;;;;;;;;;;5045497;28;20188;-86
2023/11/18 17:09:53;;;;;;;2.67;1.10;;;;;;;;;;5056947;28;20232;-85
2023/11/18 17:13:00;;;;;;;2.10;1.17;;;;;;;;;;5068179;28;20180;-86
2023/11/18 17:16:04;;;;;;;1.50;1.10;;;;;;;;;;5057976;28;20188;-86
2023/11/18 17:19:09;;;;;;;2.37;1.50;;;;;;;;;;5057135;28;20216;-86
2023/11/18 17:22:13;;;;;;;2.50;2.20;;;;;;;;;;5057828;28;20180;-86
2023/11/18 17:25:18;;;;;;;2.07;1.53;;;;;;;;;;5045543;28;20510;-86
2023/11/18 17:28:23;;;;;;;4.03;1.73;;;;;;;;;;5056341;28;20232;-86
2023/11/18 17:31:28;;;;;;;2.67;1.60;;;;;;;;;;5060375;28;20179;-86
2023/11/18 17:34:32;;;;;;;3.53;2.00;;;;;;;;;;5046242;28;20195;-87
2023/11/18 17:37:37;;;;;;;2.10;1.90;;;;;;;;;;5047631;28;20181;-87
2023/11/18 17:40:41;;;;;;;2.60;1.80;;;;;;;;;;5057057;28;20624;-87
2023/11/18 17:43:45;;;;;;;2.10;1.90;;;;;;;;;;5046908;28;20180;-87
2023/11/18 17:46:49;;;;;;;8.63;7.03;;;;;;;;;;5045812;28;20180;-87
2023/11/18 17:49:53;;;;;;;5.27;4.10;;;;;;;;;;5045362;28;20592;-86
2023/11/18 17:53:00;;;;;;;4.97;3.77;;;;;;;;;;5068681;28;20176;-86
2023/11/18 17:56:05;;;;;;;4.70;3.60;;;;;;;;;;5058418;28;20176;-85
2023/11/18 17:59:09;;;;;;;3.13;2.80;;;;;;;;;;5047674;28;20223;-86
2023/11/18 18:02:15;;;;;;;4.43;2.17;;;;;;;;;;5046918;28;20184;-85
2023/11/18 18:05:19;;;;;;;5.27;2.93;;;;;;;;;;5060058;28;20514;-85
2023/11/18 18:08:23;;;;;;;4.00;3.40;;;;;;;;;;5059575;28;20232;-85
2023/11/18 18:11:27;;;;;;;5.50;2.67;;;;;;;;;;5061195;28;20180;-85
2023/11/18 18:14:32;;;;;;;2.70;2.50;;;;;;;;;;5036674;28;20184;-85
2023/11/18 18:17:37;;;;;;;4.00;1.87;;;;;;;;;;5070523;28;20820;-83
2023/11/18 18:20:47;;;;;;;5.47;2.50;;;;;;;;;;5071257;28;20633;-84
2023/11/18 18:23:52;;;;;;;4.77;2.40;;;;;;;;;;5059576;28;20176;-84
2023/11/18 18:26:57;;;;;;;2.10;1.90;;;;;;;;;;5070642;28;20176;-84
2023/11/18 18:30:02;;;;;;;1.77;1.60;;;;;;;;;;5058484;28;20224;-85
2023/11/18 18:33:09;;;;;;;2.50;1.60;;;;;;;;;;5059744;28;20180;-84
2023/11/18 18:36:14;;;;;;;2.60;1.50;;;;;;;;;;5059873;28;20525;-84
2023/11/18 18:39:18;;;;;;;3.60;1.70;;;;;;;;;;5047901;28;20215;-84
2023/11/18 18:42:24;;;;;;;2.23;1.30;;;;;;;;;;5059783;28;20210;-84